createdAt,value
2018-03-24T00:01:29.503Z,4.40
2018-03-24T00:04:35.001Z,4.30
2018-03-24T00:07:40.796Z,4.17
2018-03-24T00:10:46.302Z,4.20
2018-03-24T00:13:51.856Z,4.00
2018-03-24T00:16:57.423Z,4.20
2018-03-24T00:20:03.319Z,4.13
2018-03-24T00:23:08.831Z,4.10
2018-03-24T00:26:14.366Z,4.40
2018-03-24T00:29:19.866Z,3.40
2018-03-24T00:32:25.470Z,4.10
2018-03-24T00:35:30.978Z,4.47
2018-03-24T00:38:36.537Z,3.53
2018-03-24T00:41:42.033Z,4.03
2018-03-24T00:44:47.655Z,3.50
2018-03-24T00:47:53.173Z,3.80
2018-03-24T00:50:58.575Z,3.50
2018-03-24T00:54:04.088Z,3.23
2018-03-24T00:57:09.486Z,3.73
2018-03-24T01:00:14.867Z,3.63
2018-03-24T01:03:20.287Z,3.63
2018-03-24T01:06:25.803Z,4.40
2018-03-24T01:09:31.391Z,3.30
2018-03-24T01:12:36.901Z,4.00
2018-03-24T01:15:42.496Z,3.77
2018-03-24T01:18:48.154Z,3.60
2018-03-24T01:21:53.698Z,4.00
2018-03-24T01:24:59.326Z,3.50
2018-03-24T01:28:04.885Z,3.77
2018-03-24T01:31:10.430Z,3.60
2018-03-24T01:34:16.022Z,3.47
2018-03-24T01:37:21.534Z,3.40
2018-03-24T01:40:28.806Z,3.47
2018-03-24T01:43:34.696Z,3.90
2018-03-24T01:46:40.277Z,4.47
2018-03-24T01:49:45.788Z,3.57
2018-03-24T01:52:51.334Z,3.70
2018-03-24T01:55:56.859Z,3.53
2018-03-24T01:59:02.646Z,3.77
2018-03-24T02:02:07.828Z,3.37
2018-03-24T02:05:13.382Z,3.30
2018-03-24T02:08:18.887Z,3.77
2018-03-24T02:11:24.693Z,4.10
2018-03-24T02:14:30.290Z,2.97
2018-03-24T02:17:35.837Z,3.10
2018-03-24T02:20:41.262Z,4.17
2018-03-24T02:23:46.610Z,3.70
2018-03-24T02:26:52.223Z,3.37
2018-03-24T02:29:57.768Z,3.53
2018-03-24T02:33:03.349Z,4.13
2018-03-24T02:36:08.887Z,3.70
2018-03-24T02:39:14.473Z,3.60
2018-03-24T02:42:19.979Z,3.90
2018-03-24T02:45:25.523Z,4.30
2018-03-24T02:48:31.062Z,3.97
2018-03-24T02:51:36.715Z,4.10
2018-03-24T02:54:42.740Z,3.53
2018-03-24T02:57:48.329Z,3.57
2018-03-24T03:00:53.839Z,4.13
2018-03-24T03:04:01.968Z,3.47
2018-03-24T03:07:08.978Z,3.73
2018-03-24T03:10:16.655Z,4.37
2018-03-24T03:13:39.950Z,3.63
2018-03-24T03:17:11.858Z,3.93
2018-03-24T03:24:15.005Z,4.50
2018-03-24T03:28:03.748Z,4.10
2018-03-24T03:31:32.878Z,4.97
2018-03-24T03:35:03.983Z,4.57
2018-03-24T03:38:29.812Z,4.30
2018-03-24T03:42:00.588Z,4.20
2018-03-24T03:45:29.315Z,3.80
2018-03-24T03:49:02.480Z,4.40
2018-03-24T03:52:34.133Z,4.83
2018-03-24T03:56:00.872Z,3.80
2018-03-24T03:59:31.866Z,4.40
2018-03-24T04:03:14.774Z,4.30
2018-03-24T04:06:46.246Z,4.63
2018-03-24T04:10:23.025Z,4.10
2018-03-24T04:17:35.864Z,4.87
2018-03-24T04:20:51.864Z,4.17
2018-03-24T04:24:03.712Z,3.97
2018-03-24T04:27:19.258Z,5.53
2018-03-24T04:30:27.250Z,4.90
2018-03-24T04:33:43.852Z,3.70
2018-03-24T04:36:53.749Z,4.80
2018-03-24T04:40:01.417Z,4.20
2018-03-24T04:43:10.275Z,4.97
2018-03-24T04:46:17.553Z,4.90
2018-03-24T04:49:24.784Z,4.27
2018-03-24T04:52:30.666Z,5.37
2018-03-24T04:55:36.419Z,5.13
2018-03-24T04:58:41.963Z,5.00
2018-03-24T05:01:47.466Z,4.60
2018-03-24T05:04:53.063Z,4.60
2018-03-24T05:07:58.634Z,4.53
2018-03-24T05:11:04.192Z,4.23
2018-03-24T05:14:09.702Z,5.10
2018-03-24T05:17:15.091Z,5.30
2018-03-24T05:20:20.727Z,4.73
2018-03-24T05:23:26.224Z,4.20
2018-03-24T05:26:31.758Z,4.70
2018-03-24T05:29:37.258Z,5.03
2018-03-24T05:32:43.727Z,5.03
2018-03-24T05:35:49.235Z,5.17
2018-03-24T05:38:58.630Z,5.20
2018-03-24T05:42:07.946Z,4.50
2018-03-24T05:45:21.177Z,4.90
2018-03-24T05:48:27.602Z,5.50
2018-03-24T05:51:36.585Z,5.50
2018-03-24T05:54:44.898Z,4.60
2018-03-24T05:57:53.520Z,5.30
2018-03-24T06:01:00.430Z,5.87
2018-03-24T06:04:07.238Z,4.40
2018-03-24T06:07:12.807Z,5.53
2018-03-24T06:10:19.025Z,5.10
2018-03-24T06:13:25.622Z,5.47
2018-03-24T06:16:33.501Z,5.27
2018-03-24T06:19:43.202Z,5.50
2018-03-24T06:23:04.394Z,5.73
2018-03-24T06:26:09.958Z,6.20
2018-03-24T06:29:16.115Z,5.90
2018-03-24T06:32:21.924Z,6.10
2018-03-24T06:35:27.365Z,6.20
2018-03-24T06:38:32.887Z,4.93
2018-03-24T06:41:38.455Z,5.60
2018-03-24T06:44:44.097Z,5.30
2018-03-24T06:47:49.841Z,6.10
2018-03-24T06:50:55.354Z,6.17
2018-03-24T06:54:00.890Z,6.47
2018-03-24T06:57:06.102Z,5.43
2018-03-24T07:00:11.719Z,6.40
2018-03-24T07:03:17.228Z,6.83
2018-03-24T07:06:22.780Z,6.00
2018-03-24T07:09:28.318Z,6.30
2018-03-24T07:12:33.867Z,5.87
2018-03-24T07:15:39.425Z,5.80
2018-03-24T07:18:44.978Z,5.70
2018-03-24T07:21:56.930Z,6.23
2018-03-24T07:25:06.312Z,5.63
2018-03-24T07:28:12.249Z,5.80
2018-03-24T07:31:23.765Z,6.73
2018-03-24T07:34:42.506Z,6.13
2018-03-24T07:38:22.608Z,6.23
2018-03-24T07:42:03.732Z,6.07
2018-03-24T07:45:22.778Z,6.40
2018-03-24T07:48:57.040Z,5.27
2018-03-24T07:52:17.127Z,5.80
2018-03-24T07:55:41.812Z,6.40
2018-03-24T07:59:09.241Z,5.93
2018-03-24T08:02:31.537Z,6.53
2018-03-24T08:05:53.673Z,6.63
2018-03-24T08:09:31.672Z,6.30
2018-03-24T08:12:56.692Z,5.97
2018-03-24T08:16:36.149Z,7.23
2018-03-24T08:20:00.355Z,6.70
2018-03-24T08:23:40.529Z,7.73
2018-03-24T08:27:08.669Z,7.90
2018-03-24T08:30:36.162Z,7.13
2018-03-24T08:34:11.150Z,7.10
2018-03-24T08:37:30.586Z,7.20
2018-03-24T08:41:08.066Z,6.83
2018-03-24T08:44:34.734Z,7.20
2018-03-24T08:47:54.564Z,7.27
2018-03-24T08:51:35.632Z,6.97
2018-03-24T08:55:17.678Z,8.37
2018-03-24T08:58:44.450Z,7.70
2018-03-24T09:02:11.191Z,8.00
2018-03-24T09:05:48.217Z,7.97
2018-03-24T09:09:16.243Z,8.20
2018-03-24T09:12:34.664Z,7.97
2018-03-24T09:15:53.971Z,8.03
2018-03-24T09:19:12.741Z,8.80
2018-03-24T09:22:27.545Z,7.70
2018-03-24T09:25:41.082Z,7.80
2018-03-24T09:28:54.671Z,7.93
2018-03-24T09:32:00.259Z,9.57
2018-03-24T09:35:05.813Z,8.80
2018-03-24T09:38:11.383Z,8.87
2018-03-24T09:41:16.939Z,8.90
2018-03-24T09:44:22.521Z,9.10
2018-03-24T09:47:38.870Z,8.77
2018-03-24T09:51:02.256Z,9.63
2018-03-24T09:54:17.944Z,9.50
2018-03-24T09:57:40.746Z,9.07
2018-03-24T10:00:59.558Z,8.87
2018-03-24T10:04:21.725Z,10.10
2018-03-24T10:07:46.402Z,10.10
2018-03-24T10:11:10.198Z,9.43
2018-03-24T10:14:34.774Z,10.70
2018-03-24T10:17:56.909Z,10.70
2018-03-24T10:25:08.497Z,10.27
2018-03-24T10:28:25.066Z,10.53
2018-03-24T10:31:59.871Z,10.00
2018-03-24T10:35:19.220Z,11.03
2018-03-24T10:38:42.988Z,10.47
2018-03-24T10:41:55.143Z,10.10
2018-03-24T10:45:00.758Z,10.20
2018-03-24T10:48:06.296Z,10.23
2018-03-24T10:51:12.916Z,10.53
2018-03-24T10:54:19.189Z,10.63
2018-03-24T10:57:27.927Z,11.10
2018-03-24T11:00:33.843Z,10.50
2018-03-24T11:03:42.563Z,11.40
2018-03-24T11:07:00.003Z,10.30
2018-03-24T11:17:40.696Z,12.17
2018-03-24T11:21:02.734Z,12.37
2018-03-24T11:24:20.550Z,12.63
2018-03-24T11:27:40.575Z,12.20
2018-03-24T11:31:01.883Z,12.10
2018-03-24T11:34:22.656Z,12.50
2018-03-24T11:37:45.222Z,11.80
2018-03-24T11:41:03.608Z,12.40
2018-03-24T11:44:18.632Z,13.30
2018-03-24T11:47:38.259Z,13.77
2018-03-24T11:51:09.538Z,12.77
2018-03-24T11:54:41.315Z,14.87
2018-03-24T11:57:55.725Z,12.73
2018-03-24T12:01:02.744Z,14.17
2018-03-24T12:04:09.161Z,13.60
2018-03-24T12:07:14.721Z,15.43
2018-03-24T12:10:20.488Z,14.00
2018-03-24T12:13:26.052Z,15.90
2018-03-24T12:16:31.608Z,16.13
2018-03-24T12:19:37.173Z,15.70
2018-03-24T12:22:42.698Z,16.80
2018-03-24T12:25:50.791Z,17.63
2018-03-24T12:29:01.048Z,17.93
2018-03-24T12:32:06.629Z,16.93
2018-03-24T12:35:12.945Z,16.00
2018-03-24T12:38:18.585Z,17.13
2018-03-24T12:41:24.985Z,17.20
2018-03-24T12:44:32.226Z,15.97
2018-03-24T12:47:38.149Z,17.30
2018-03-24T12:50:43.988Z,16.70
2018-03-24T12:53:49.571Z,19.03
2018-03-24T12:56:55.069Z,17.50
2018-03-24T13:07:47.496Z,17.07
2018-03-24T13:11:05.017Z,17.20
2018-03-24T13:14:11.210Z,16.30
2018-03-24T13:17:16.789Z,15.60
2018-03-24T13:20:22.398Z,16.00
2018-03-24T13:23:28.469Z,18.80
2018-03-24T13:26:34.411Z,17.00
2018-03-24T13:29:40.371Z,18.37
2018-03-24T13:32:50.662Z,15.63
2018-03-24T13:36:01.006Z,15.10
2018-03-24T13:39:07.752Z,15.63
2018-03-24T13:42:13.391Z,16.70
2018-03-24T13:45:19.667Z,14.40
2018-03-24T13:48:25.260Z,15.40
2018-03-24T13:51:30.851Z,15.80
2018-03-24T13:54:37.569Z,16.03
2018-03-24T13:57:46.201Z,15.80
2018-03-24T14:00:54.182Z,14.57
2018-03-24T14:04:01.350Z,15.23
2018-03-24T14:07:06.872Z,17.27
2018-03-24T14:10:12.492Z,15.20
2018-03-24T14:13:18.190Z,14.70
2018-03-24T14:16:23.710Z,14.17
2018-03-24T14:19:30.990Z,13.57
2018-03-24T14:22:36.636Z,14.43
2018-03-24T14:25:42.322Z,14.90
2018-03-24T14:28:49.875Z,13.73
2018-03-24T14:31:56.546Z,13.77
2018-03-24T14:35:02.152Z,13.40
2018-03-24T14:38:09.193Z,13.77
2018-03-24T14:41:16.134Z,13.40
2018-03-24T14:44:29.436Z,13.53
2018-03-24T14:47:36.523Z,13.90
2018-03-24T14:50:42.354Z,12.20
2018-03-24T14:53:52.439Z,13.77
2018-03-24T14:57:02.937Z,12.73
2018-03-24T15:00:17.997Z,13.30
2018-03-24T15:03:30.013Z,12.60
2018-03-24T15:06:39.168Z,12.00
2018-03-24T15:09:48.007Z,12.13
2018-03-24T15:12:59.302Z,12.23
2018-03-24T15:16:06.479Z,12.20
2018-03-24T15:19:12.621Z,12.40
2018-03-24T15:22:18.498Z,11.77
2018-03-24T15:25:24.142Z,12.30
2018-03-24T15:28:29.699Z,11.97
2018-03-24T15:31:51.593Z,12.60
2018-03-24T15:35:24.076Z,12.80
2018-03-24T15:38:29.645Z,10.97
2018-03-24T15:41:35.168Z,12.50
2018-03-24T15:44:40.791Z,10.77
2018-03-24T15:47:50.452Z,12.43
2018-03-24T15:51:01.443Z,11.33
2018-03-24T15:54:08.030Z,12.17
2018-03-24T15:57:13.673Z,11.50
2018-03-24T16:00:19.481Z,11.03
2018-03-24T16:03:25.476Z,11.50
2018-03-24T16:06:31.076Z,13.33
2018-03-24T16:09:36.636Z,12.60
2018-03-24T16:12:42.169Z,12.83
2018-03-24T16:15:48.465Z,12.17
2018-03-24T16:18:54.852Z,10.77
2018-03-24T16:22:00.459Z,12.00
2018-03-24T16:25:06.160Z,12.57
2018-03-24T16:28:11.735Z,11.60
2018-03-24T16:31:17.856Z,10.90
2018-03-24T16:34:23.800Z,12.33
2018-03-24T16:37:29.344Z,11.33
2018-03-24T16:40:39.388Z,12.80
2018-03-24T16:43:46.972Z,10.33
2018-03-24T16:46:52.501Z,12.20
2018-03-24T16:49:58.108Z,11.73
2018-03-24T16:53:03.842Z,11.90
2018-03-24T16:56:11.750Z,11.67
2018-03-24T16:59:17.434Z,14.20
2018-03-24T17:02:22.694Z,13.97
2018-03-24T17:05:28.653Z,14.50
2018-03-24T17:08:35.873Z,13.37
2018-03-24T17:11:42.031Z,12.57
2018-03-24T17:14:47.737Z,12.33
2018-03-24T17:17:53.295Z,11.33
2018-03-24T17:20:58.818Z,12.27
2018-03-24T17:24:04.578Z,11.10
2018-03-24T17:27:10.555Z,12.80
2018-03-24T17:30:16.363Z,11.20
2018-03-24T17:33:21.920Z,10.40
2018-03-24T17:36:27.650Z,11.10
2018-03-24T17:39:33.178Z,10.80
2018-03-24T17:42:38.740Z,10.77
2018-03-24T17:45:44.105Z,12.57
2018-03-24T17:48:49.751Z,11.17
2018-03-24T17:51:55.489Z,13.00
2018-03-24T17:55:01.041Z,10.87
2018-03-24T17:58:08.489Z,11.13
2018-03-24T18:01:14.118Z,12.27
2018-03-24T18:04:19.739Z,12.47
2018-03-24T18:07:25.291Z,11.20
2018-03-24T18:10:34.539Z,10.37
2018-03-24T18:13:40.381Z,11.13
2018-03-24T18:16:45.953Z,11.87
2018-03-24T18:19:51.621Z,12.00
2018-03-24T18:22:57.133Z,10.93
2018-03-24T18:26:02.685Z,11.77
2018-03-24T18:29:08.399Z,12.50
2018-03-24T18:32:13.908Z,12.97
2018-03-24T18:35:19.490Z,13.30
2018-03-24T18:38:25.064Z,13.47
2018-03-24T18:41:30.684Z,11.83
2018-03-24T18:44:36.277Z,9.63
2018-03-24T18:47:41.818Z,10.43
2018-03-24T18:50:47.441Z,10.40
2018-03-24T18:53:53.033Z,8.70
2018-03-24T18:56:58.562Z,10.50
2018-03-24T19:00:03.973Z,10.13
2018-03-24T19:03:09.653Z,9.80
2018-03-24T19:06:15.317Z,10.50
2018-03-24T19:09:20.907Z,10.43
2018-03-24T19:12:26.454Z,10.00
2018-03-24T19:15:32.017Z,9.30
2018-03-24T19:18:37.552Z,9.43
2018-03-24T19:21:43.165Z,8.93
2018-03-24T19:24:48.742Z,10.07
2018-03-24T19:27:54.404Z,9.70
2018-03-24T19:30:59.961Z,10.10
2018-03-24T19:34:05.546Z,9.40
2018-03-24T19:37:11.098Z,10.50
2018-03-24T19:40:16.645Z,9.27
2018-03-24T19:43:22.199Z,9.43
2018-03-24T19:46:27.749Z,8.40
2018-03-24T19:49:33.298Z,10.10
2018-03-24T19:52:38.844Z,10.13
2018-03-24T19:55:44.395Z,9.40
2018-03-24T19:58:49.914Z,11.43
2018-03-24T20:01:55.472Z,9.60
2018-03-24T20:05:01.107Z,10.80
2018-03-24T20:08:06.548Z,9.97
2018-03-24T20:11:12.364Z,10.90
2018-03-24T20:14:18.058Z,11.90
2018-03-24T20:17:23.312Z,9.97
2018-03-24T20:20:30.482Z,11.20
2018-03-24T20:23:36.905Z,10.80
2018-03-24T20:26:48.516Z,12.80
2018-03-24T20:29:54.148Z,11.77
2018-03-24T20:32:59.664Z,11.50
2018-03-24T20:36:05.265Z,12.10
2018-03-24T20:39:11.391Z,11.47
2018-03-24T20:42:16.918Z,11.20
2018-03-24T20:45:25.376Z,11.30
2018-03-24T20:48:30.961Z,10.80
2018-03-24T20:51:36.549Z,11.57
2018-03-24T20:54:42.124Z,10.90
2018-03-24T20:57:47.874Z,10.83
2018-03-24T21:00:53.429Z,10.60
2018-03-24T21:03:59.118Z,8.80
2018-03-24T21:07:04.722Z,10.37
2018-03-24T21:10:10.304Z,10.40
2018-03-24T21:13:15.889Z,8.87
2018-03-24T21:16:21.373Z,9.63
2018-03-24T21:19:26.946Z,9.47
2018-03-24T21:22:32.668Z,8.30
2018-03-24T21:25:38.165Z,9.23
2018-03-24T21:28:44.668Z,9.87
2018-03-24T21:31:50.218Z,10.80
2018-03-24T21:34:55.767Z,8.37
2018-03-24T21:38:01.318Z,9.77
2018-03-24T21:41:06.853Z,9.60
2018-03-24T21:44:12.365Z,10.70
2018-03-24T21:47:32.365Z,9.00
2018-03-24T21:51:02.331Z,9.60
2018-03-24T21:54:34.652Z,8.83
2018-03-24T21:57:42.882Z,9.50
2018-03-24T22:00:48.836Z,9.27
2018-03-24T22:03:54.381Z,8.70
2018-03-24T22:07:00.097Z,9.77
2018-03-24T22:10:05.821Z,9.17
2018-03-24T22:13:11.312Z,9.27
2018-03-24T22:16:16.858Z,8.67
2018-03-24T22:19:22.375Z,7.90
2018-03-24T22:22:27.939Z,7.53
2018-03-24T22:25:33.482Z,8.37
2018-03-24T22:28:38.990Z,10.37
2018-03-24T22:31:44.553Z,8.80
2018-03-24T22:34:50.070Z,8.13
2018-03-24T22:37:55.619Z,9.20
2018-03-24T22:41:01.226Z,7.73
2018-03-24T22:44:06.809Z,8.50
2018-03-24T22:47:12.326Z,8.83
2018-03-24T22:50:17.876Z,7.93
2018-03-24T22:53:23.387Z,8.07
2018-03-24T22:56:28.645Z,9.30
2018-03-24T22:59:34.157Z,9.17
2018-03-24T23:02:39.699Z,8.30
2018-03-24T23:05:45.248Z,8.43
2018-03-24T23:08:50.752Z,8.70
2018-03-24T23:11:56.297Z,8.50
2018-03-24T23:15:01.837Z,10.00
2018-03-24T23:18:07.394Z,8.03
2018-03-24T23:21:12.979Z,8.03
2018-03-24T23:24:18.383Z,8.00
2018-03-24T23:27:23.981Z,8.73
2018-03-24T23:30:32.309Z,8.83
2018-03-24T23:33:37.825Z,7.70
2018-03-24T23:36:43.361Z,7.40
2018-03-24T23:39:48.607Z,8.17
2018-03-24T23:42:54.147Z,8.20
2018-03-24T23:45:59.761Z,8.40
2018-03-24T23:49:05.369Z,8.87
2018-03-24T23:52:10.875Z,8.90
2018-03-24T23:55:16.453Z,8.93
2018-03-24T23:58:21.949Z,8.93
